Time;durP1;ratioP1;P1;durP2;ratioP2;P2;SDS_P1;SDS_P2;PMS_P1;PMS_P2;Temp;Humidity;BMP_temperature;BMP_pressure;BME280_temperature;BME280_humidity;BME280_pressure;Samples;Min_cycle;Max_cycle;Signal;HPM_P1;HPM_P2
2023/11/15 00:00:21;;;;;;;;;4.50;2.25;;;;;14.77;83.84;100871.47;6247667;22;50606;-87
2023/11/15 00:02:47;;;;;;;;;2.00;2.00;;;;;14.74;83.83;100878.63;6220510;22;45320;-88
2023/11/15 00:05:12;;;;;;;;;3.00;3.00;;;;;14.75;83.74;100878.63;6218713;22;44891;-88
2023/11/15 00:07:38;;;;;;;;;5.67;2.33;;;;;14.72;83.91;100885.75;6219377;22;45280;-87
2023/11/15 00:10:04;;;;;;;;;3.00;3.00;;;;;14.73;84.07;100876.84;6221408;22;46917;-86
2023/11/15 00:12:31;;;;;;;;;3.00;1.50;;;;;14.70;83.92;100884.88;6249690;22;45321;-87
2023/11/15 00:14:57;;;;;;;;;4.33;3.00;;;;;14.67;84.18;100890.22;6247924;22;45545;-87
2023/11/15 00:17:22;;;;;;;;;2.00;1.00;;;;;14.63;84.20;100885.78;6245876;22;45441;-87
2023/11/15 00:19:49;;;;;;;;;5.33;2.67;;;;;14.64;84.39;100882.19;6195615;22;46806;-87
2023/11/15 00:22:14;;;;;;;;;5.25;4.50;;;;;14.66;84.48;100894.66;6252432;22;45413;-86
2023/11/15 00:24:41;;;;;;;;;2.33;0.67;;;;;14.70;84.69;100900.91;6252494;22;44780;-86
2023/11/15 00:27:08;;;;;;;;;4.75;3.00;;;;;14.65;84.68;100903.63;6224480;22;45436;-86
2023/11/15 00:29:33;;;;;;;;;2.00;2.00;;;;;14.58;84.76;100894.69;6225696;22;47081;-87
2023/11/15 00:32:06;;;;;;;;;1.00;1.00;;;;;14.84;84.48;100904.47;6248058;22;45382;-85
2023/11/15 00:34:31;;;;;;;;;1.00;1.00;;;;;14.57;84.87;100898.25;6223750;22;45376;-86
2023/11/15 00:36:57;;;;;;;;;3.00;2.00;;;;;14.56;84.58;100895.56;6253449;22;45320;-86
2023/11/15 00:39:22;;;;;;;;;3.00;1.67;;;;;14.58;85.01;100910.75;6252821;22;45118;-86
2023/11/15 00:45:11;;;;;;;;;3.33;2.00;;;;;14.52;84.88;100913.41;6252384;22;45646;-88
2023/11/15 00:47:37;;;;;;;;;4.00;1.67;;;;;14.48;85.26;100924.06;6223142;22;45285;-87
2023/11/15 00:50:04;;;;;;;;;4.33;2.00;;;;;14.47;85.30;100922.31;6251647;22;45304;-88
2023/11/15 00:52:30;;;;;;;;;5.00;2.00;;;;;14.51;85.48;100926.78;6251485;22;45364;-87
2023/11/15 00:58:44;;;;;;;;;3.25;2.75;;;;;14.78;85.30;100928.59;6250805;22;45372;-86
2023/11/15 01:01:11;;;;;;;;;3.00;1.00;;;;;14.54;85.30;100941.06;6250188;22;47098;-86
2023/11/15 01:03:45;;;;;;;;;1.00;1.00;;;;;14.72;85.58;100936.63;6251759;22;45416;-86
2023/11/15 01:06:11;;;;;;;;;2.50;2.50;;;;;14.58;85.43;100932.16;6225894;22;45368;-87
2023/11/15 01:08:37;;;;;;;;;3.50;2.50;;;;;14.55;85.48;100953.53;6225207;22;45487;-86
2023/11/15 01:11:05;;;;;;;;;2.50;2.00;;;;;14.55;85.33;100952.66;6196153;22;47224;-86
2023/11/15 01:13:32;;;;;;;;;2.00;1.00;;;;;14.57;85.38;100961.59;6245859;22;44761;-85
2023/11/15 01:15:58;;;;;;;;;2.00;2.00;;;;;14.50;85.45;100960.69;6221290;22;45407;-84
2023/11/15 01:18:23;;;;;;;;;3.67;2.00;;;;;14.50;85.38;100971.38;6221529;22;45371;-86
2023/11/15 01:20:51;;;;;;;;;2.67;2.00;;;;;14.52;85.60;100972.28;6223379;22;47891;-86
2023/11/15 01:23:17;;;;;;;;;2.67;2.33;;;;;14.53;85.49;100966.00;6250003;22;45399;-87
2023/11/15 01:25:42;;;;;;;;;3.25;1.75;;;;;14.49;85.45;100969.59;6249277;22;44803;-86
2023/11/15 01:28:08;;;;;;;;;3.00;1.33;;;;;14.51;85.66;100967.78;6221763;22;45354;-87
2023/11/15 01:30:33;;;;;;;;;2.33;1.00;;;;;14.57;85.51;100980.34;6247448;22;47122;-87
2023/11/15 01:36:21;;;;;;;;;2.67;2.00;;;;;14.50;85.75;100973.13;6248245;22;45448;-87
2023/11/15 01:38:46;;;;;;;;;1.67;1.67;;;;;14.48;85.75;100980.28;6249670;22;45281;-86
2023/11/15 01:41:11;;;;;;;;;1.33;1.33;;;;;14.53;85.83;100971.38;6222120;22;47179;-86
2023/11/15 01:43:37;;;;;;;;;4.00;2.00;;;;;14.50;85.79;100968.72;6247697;22;45398;-86
2023/11/15 01:46:04;;;;;;;;;5.00;2.00;;;;;14.59;86.01;100979.44;6221958;22;45719;-87
2023/11/15 01:48:31;;;;;;;;;2.33;2.33;;;;;14.62;85.81;100980.34;6248824;22;45381;-87
2023/11/15 01:50:56;;;;;;;;;2.00;2.00;;;;;14.50;86.02;100979.41;6221095;22;47485;-87
2023/11/15 01:53:26;;;;;;;;;2.00;2.00;;;;;14.75;85.70;100998.22;6220534;22;45335;-86
2023/11/15 01:55:52;;;;;;;;;3.00;2.00;;;;;14.50;85.73;100979.41;6249575;22;45352;-86
2023/11/15 01:58:18;;;;;;;;;2.33;1.33;;;;;14.64;85.96;100974.09;6247399;22;45328;-86
2023/11/15 02:00:45;;;;;;;;;4.33;3.00;;;;;14.63;85.82;100974.09;6224410;22;48155;-84
2023/11/15 02:03:11;;;;;;;;;4.00;3.00;;;;;14.68;85.77;100993.72;6228677;22;45270;-85
2023/11/15 02:05:37;;;;;;;;;4.67;3.00;;;;;14.56;85.52;100979.44;6255405;22;45381;-85
2023/11/15 02:08:03;;;;;;;;;2.33;1.00;;;;;14.60;85.80;100983.91;6256418;22;44809;-85
2023/11/15 02:10:29;;;;;;;;;3.67;2.00;;;;;14.52;85.89;100979.38;6255701;22;45269;-85
2023/11/15 02:12:56;;;;;;;;;2.00;1.00;;;;;14.71;85.91;101001.78;6257080;22;45232;-86
2023/11/15 02:15:22;;;;;;;;;2.00;2.00;;;;;14.56;85.97;101000.88;6256391;22;45281;-85
2023/11/15 02:17:48;;;;;;;;;4.00;3.00;;;;;14.57;85.65;101005.31;6255399;22;44891;-84
2023/11/15 02:20:17;;;;;;;;;3.67;2.00;;;;;14.72;86.08;101008.91;6230719;22;47175;-85
2023/11/15 02:22:50;;;;;;;;;1.33;1.33;;;;;14.74;86.25;101017.81;6256387;22;44860;-85
2023/11/15 02:25:17;;;;;;;;;1.00;1.00;;;;;14.57;86.21;101012.47;6229492;22;44891;-85
2023/11/15 02:27:43;;;;;;;;;3.67;2.00;;;;;14.53;86.26;101021.34;6256760;22;44854;-84
2023/11/15 02:30:09;;;;;;;;;5.00;1.00;;;;;14.53;86.33;101030.25;6229866;22;47731;-84
2023/11/15 02:32:37;;;;;;;;;3.33;2.00;;;;;14.65;86.46;101029.44;6229458;22;44820;-84
2023/11/15 02:35:03;;;;;;;;;4.00;2.33;;;;;14.57;86.47;101031.19;6257448;22;45217;-84
2023/11/15 02:37:29;;;;;;;;;1.00;1.00;;;;;14.58;85.97;101036.56;6254970;22;45318;-85
2023/11/15 02:39:57;;;;;;;;;1.00;1.00;;;;;14.56;85.91;101030.31;6257636;22;45029;-85
2023/11/15 02:42:23;;;;;;;;;2.00;2.00;;;;;14.50;86.17;101040.97;6227713;22;45311;-84
2023/11/15 02:44:50;;;;;;;;;4.00;3.00;;;;;14.65;86.00;101041.91;6229005;22;45671;-85
2023/11/15 02:47:15;;;;;;;;;3.00;2.67;;;;;14.45;85.99;101026.66;6258203;22;44753;-85
2023/11/15 02:49:41;;;;;;;;;0.00;0.00;;;;;14.51;86.16;101033.81;6227589;22;47833;-84
2023/11/15 02:52:06;;;;;;;;;2.00;1.50;;;;;14.48;85.87;101048.09;6254075;22;45336;-85
2023/11/15 02:54:31;;;;;;;;;2.33;2.33;;;;;14.47;85.98;101048.09;6228416;22;55130;-85
2023/11/15 02:56:57;;;;;;;;;2.00;1.00;;;;;14.49;85.95;101046.31;6257752;22;44750;-85
2023/11/15 02:59:22;;;;;;;;;3.00;3.00;;;;;14.45;85.98;101045.41;6258135;22;44947;-84
2023/11/15 03:01:50;;;;;;;;;1.33;1.33;;;;;14.47;86.15;101051.66;6232218;22;45055;-85
2023/11/15 03:04:15;;;;;;;;;3.67;2.00;;;;;14.39;86.28;101034.69;6230062;22;44806;-84
2023/11/15 03:06:40;;;;;;;;;1.00;1.00;;;;;14.34;86.14;101047.13;6258063;22;45099;-85
2023/11/15 03:09:06;;;;;;;;;4.33;2.33;;;;;14.39;86.13;101045.38;6232946;22;47050;-85
2023/11/15 03:11:31;;;;;;;;;1.00;0.67;;;;;14.36;86.24;101042.69;6259480;22;44620;-85
2023/11/15 03:13:58;;;;;;;;;2.00;2.00;;;;;14.50;86.53;101046.31;6231156;22;45240;-85
2023/11/15 03:16:23;;;;;;;;;2.00;2.00;;;;;14.34;86.53;101047.13;6230103;22;44884;-84
2023/11/15 03:18:49;;;;;;;;;1.00;1.00;;;;;14.38;86.36;101046.25;6227831;22;47150;-85
2023/11/15 03:21:15;;;;;;;;;0.67;0.67;;;;;14.41;86.61;101051.63;6230162;22;45330;-85
2023/11/15 03:23:40;;;;;;;;;1.00;1.00;;;;;14.40;86.74;101045.41;6257398;22;45296;-85
2023/11/15 03:26:06;;;;;;;;;2.00;2.00;;;;;14.39;86.43;101040.03;6257517;22;44803;-85
2023/11/15 03:28:32;;;;;;;;;1.00;1.00;;;;;14.47;86.42;101057.00;6254920;22;47216;-85
2023/11/15 03:30:57;;;;;;;;;1.00;1.00;;;;;14.44;86.31;101046.31;6229096;22;45244;-85
2023/11/15 03:33:23;;;;;;;;;2.25;1.75;;;;;14.36;86.19;101029.31;6226789;22;45234;-85
2023/11/15 03:35:49;;;;;;;;;1.00;1.00;;;;;14.43;86.35;101060.56;6255572;22;44820;-85
2023/11/15 03:38:14;;;;;;;;;3.00;1.75;;;;;14.29;86.21;101036.41;6253699;22;47003;-85
2023/11/15 03:40:41;;;;;;;;;1.75;1.75;;;;;14.30;86.04;101045.34;6204383;22;44717;-85
2023/11/15 03:43:07;;;;;;;;;2.00;2.00;;;;;14.48;86.31;101074.84;6228703;22;44868;-85
2023/11/15 03:45:33;;;;;;;;;1.25;1.25;;;;;14.43;86.13;101083.75;6257001;22;44811;-85
2023/11/15 03:48:02;;;;;;;;;1.33;1.33;;;;;14.62;86.21;101087.41;6259295;22;45162;-84
2023/11/15 03:51:07;;;;;;;;;2.75;2.75;;;;;14.82;85.67;101083.00;6228888;22;45287;-84
2023/11/15 03:53:33;;;;;;;;;1.00;1.00;;;;;14.57;86.07;101085.63;6229249;22;45286;-86
2023/11/15 03:55:58;;;;;;;;;1.00;1.00;;;;;14.52;86.04;101071.31;6256162;22;44828;-85
2023/11/15 03:58:23;;;;;;;;;1.00;1.00;;;;;14.49;86.03;101065.94;6254687;22;45256;-85
2023/11/15 04:00:59;;;;;;;;;2.00;1.50;;;;;14.50;85.73;101061.47;6253210;22;44764;-85
2023/11/15 04:03:25;;;;;;;;;2.00;2.00;;;;;14.44;85.84;101064.13;6228642;22;45427;-85
2023/11/15 04:05:50;;;;;;;;;3.00;1.33;;;;;14.61;85.78;101081.16;6253258;22;45342;-85
2023/11/15 04:08:16;;;;;;;;;2.75;1.50;;;;;14.64;85.48;101090.97;6251452;22;47030;-85
2023/11/15 04:10:41;;;;;;;;;1.75;1.25;;;;;14.62;85.64;101084.72;6253184;22;45392;-85
2023/11/15 04:13:07;;;;;;;;;1.75;1.75;;;;;14.51;85.58;101049.88;6228879;22;44927;-85
2023/11/15 04:15:33;;;;;;;;;3.50;2.50;;;;;14.52;85.68;101057.00;6228605;22;45470;-85
2023/11/15 04:17:58;;;;;;;;;3.00;2.00;;;;;14.67;85.42;101075.81;6231157;22;46983;-85
2023/11/15 04:20:24;;;;;;;;;1.75;1.00;;;;;14.60;85.16;101074.94;6258182;22;45222;-85
2023/11/15 04:22:49;;;;;;;;;6.00;3.50;;;;;14.43;85.40;101059.66;6231478;22;44835;-85
2023/11/15 04:25:15;;;;;;;;;1.50;0.50;;;;;14.51;85.58;101068.63;6259150;22;44887;-86
2023/11/15 04:27:40;;;;;;;;;3.00;0.67;;;;;14.58;85.41;101079.38;6228089;22;46911;-85
2023/11/15 04:30:07;;;;;;;;;1.00;1.00;;;;;14.46;85.37;101065.94;6257469;22;44840;-85
2023/11/15 04:32:33;;;;;;;;;4.25;2.00;;;;;14.45;85.39;101064.13;6256224;22;45295;-86
2023/11/15 04:35:08;;;;;;;;;0.00;0.00;;;;;14.84;85.47;101113.34;6231962;22;44836;-85
2023/11/15 04:38:11;;;;;;;;;1.50;0.25;;;;;14.86;85.04;101103.53;6230441;22;47146;-86
2023/11/15 04:40:37;;;;;;;;;5.00;1.50;;;;;14.45;85.74;101090.00;6229272;22;45665;-86
2023/11/15 04:43:04;;;;;;;;;0.25;0.25;;;;;14.56;85.43;101094.53;6260558;22;44680;-86
2023/11/15 04:45:30;;;;;;;;;1.50;1.25;;;;;14.41;85.74;101089.97;6232734;22;44888;-86
2023/11/15 04:47:56;;;;;;;;;3.75;3.00;;;;;14.51;85.76;101106.97;6258150;22;45441;-85
2023/11/15 04:50:22;;;;;;;;;1.00;1.00;;;;;14.59;85.85;101107.91;6258016;22;45292;-85
2023/11/15 04:52:48;;;;;;;;;1.25;1.25;;;;;14.67;85.74;101124.00;6230916;22;45410;-84
2023/11/15 04:55:14;;;;;;;;;0.00;0.00;;;;;14.74;85.50;101130.28;6230386;22;44826;-85
2023/11/15 04:57:40;;;;;;;;;5.00;2.00;;;;;14.71;85.56;101116.91;6257406;22;45155;-85
2023/11/15 05:00:10;;;;;;;;;1.00;1.00;;;;;14.79;85.42;101133.88;6230746;22;44844;-85
2023/11/15 05:02:36;;;;;;;;;0.00;0.00;;;;;14.73;85.59;101133.84;6258979;22;45365;-85
2023/11/15 05:05:02;;;;;;;;;2.75;1.00;;;;;14.63;85.58;101134.72;6231973;22;44907;-85
2023/11/15 05:07:32;;;;;;;;;3.67;3.67;;;;;14.59;85.30;101121.31;6259073;22;45269;-85
2023/11/15 05:09:57;;;;;;;;;2.00;1.00;;;;;14.64;85.68;101139.16;6231840;22;44904;-85
2023/11/15 05:12:23;;;;;;;;;3.00;2.00;;;;;14.51;85.64;101116.78;6257956;22;45276;-85
2023/11/15 05:14:49;;;;;;;;;3.00;1.67;;;;;14.59;85.73;101125.78;6231275;22;45083;-85
2023/11/15 05:17:14;;;;;;;;;3.67;2.00;;;;;14.63;85.74;101126.69;6230285;22;47458;-85
2023/11/15 05:19:40;;;;;;;;;1.75;1.75;;;;;14.68;85.52;101132.94;6230020;22;44721;-86
2023/11/15 05:22:05;;;;;;;;;2.67;2.67;;;;;14.56;85.32;101118.63;6257378;22;45483;-85
2023/11/15 05:24:31;;;;;;;;;4.00;2.00;;;;;14.51;85.20;101106.97;6230055;22;44792;-85
2023/11/15 05:26:57;;;;;;;;;1.00;1.00;;;;;14.54;85.15;101120.38;6231449;22;47407;-85
2023/11/15 05:29:24;;;;;;;;;2.00;2.00;;;;;14.52;85.16;101134.63;6232749;22;44953;-86
2023/11/15 05:31:50;;;;;;;;;3.33;1.67;;;;;14.58;85.37;101151.66;6259593;22;44756;-85
2023/11/15 05:34:16;;;;;;;;;1.50;0.50;;;;;14.50;85.22;101142.66;6259352;22;44884;-85
2023/11/15 05:36:42;;;;;;;;;3.33;3.00;;;;;14.57;85.52;101131.09;6231170;22;47468;-86
2023/11/15 05:39:11;;;;;;;;;3.00;2.00;;;;;14.78;85.61;101158.84;6255138;22;44860;-86
2023/11/15 05:41:37;;;;;;;;;2.33;2.00;;;;;14.35;85.62;101134.56;6229647;22;44826;-85
2023/11/15 05:44:03;;;;;;;;;2.33;2.33;;;;;14.40;85.42;101140.81;6229791;22;45109;-85
2023/11/15 05:46:29;;;;;;;;;1.00;1.00;;;;;14.29;85.52;101129.19;6230407;22;47672;-86
2023/11/15 05:48:54;;;;;;;;;2.00;2.00;;;;;14.41;85.60;101156.88;6229967;22;45354;-84
2023/11/15 05:51:20;;;;;;;;;3.33;2.00;;;;;14.43;85.79;101166.72;6231542;22;44865;-85
2023/11/15 05:53:45;;;;;;;;;1.67;1.67;;;;;14.44;86.04;101173.84;6258100;22;44825;-85
2023/11/15 05:56:11;;;;;;;;;4.67;2.00;;;;;14.25;86.00;101133.59;6257706;22;45673;-85
2023/11/15 05:58:37;;;;;;;;;3.00;2.00;;;;;14.20;86.11;101136.25;6255139;22;44979;-86
2023/11/15 06:01:04;;;;;;;;;4.67;2.00;;;;;14.30;86.31;101133.63;6228528;22;45157;-86
2023/11/15 06:03:30;;;;;;;;;5.67;1.67;;;;;14.36;86.23;101179.13;6228471;22;45329;-86
2023/11/15 06:05:56;;;;;;;;;2.67;1.00;;;;;14.17;86.45;101143.38;6254652;22;47341;-86
2023/11/15 06:08:23;;;;;;;;;3.00;1.00;;;;;14.16;86.28;101137.13;6229427;22;44785;-86
2023/11/15 06:10:49;;;;;;;;;2.50;1.00;;;;;14.31;86.33;101167.53;6253956;22;44874;-85
2023/11/15 06:13:19;;;;;;;;;2.33;1.33;;;;;14.28;86.23;101168.41;6229779;22;44934;-84
2023/11/15 06:15:44;;;;;;;;;4.00;2.33;;;;;14.35;86.30;101190.75;6257958;22;45487;-84
2023/11/15 06:18:10;;;;;;;;;3.33;1.33;;;;;14.12;86.34;101159.41;6230857;22;44808;-84
2023/11/15 06:20:38;;;;;;;;;1.00;1.00;;;;;14.19;86.30;101169.25;6258231;22;44897;-84
2023/11/15 06:23:04;;;;;;;;;1.00;1.00;;;;;14.25;86.30;101186.22;6259384;22;45367;-85
2023/11/15 06:25:32;;;;;;;;;1.00;1.00;;;;;14.22;86.25;101189.78;6257220;22;46296;-85
2023/11/15 06:27:58;;;;;;;;;3.00;1.33;;;;;14.10;86.42;101166.53;6258222;22;44772;-85
2023/11/15 06:30:30;;;;;;;;;3.33;2.00;;;;;14.12;86.47;101171.91;6256206;22;45352;-85
2023/11/15 06:32:55;;;;;;;;;2.50;0.75;;;;;14.08;86.46;101164.69;6259432;22;44752;-86
2023/11/15 06:35:21;;;;;;;;;3.00;0.00;;;;;14.13;86.44;101179.00;6260467;22;45447;-85
2023/11/15 06:41:08;;;;;;;;;2.67;2.67;;;;;14.21;86.25;101202.25;6252726;22;45316;-85
2023/11/15 06:43:35;;;;;;;;;2.00;2.00;;;;;14.27;86.42;101200.50;6249834;22;45812;-84
2023/11/15 06:46:00;;;;;;;;;2.33;1.33;;;;;14.11;86.70;101192.38;6221557;22;47274;-84
2023/11/15 06:48:26;;;;;;;;;2.50;2.50;;;;;14.12;86.64;101202.19;6249170;22;44948;-85
2023/11/15 06:50:51;;;;;;;;;2.25;1.75;;;;;14.12;86.81;101207.56;6248797;22;44854;-85
2023/11/15 06:53:17;;;;;;;;;2.00;2.00;;;;;14.08;86.77;101197.72;6247349;22;45402;-87
2023/11/15 06:55:42;;;;;;;;;1.00;1.00;;;;;14.05;86.93;101208.38;6219830;22;47012;-87
2023/11/15 06:58:11;;;;;;;;;2.00;2.00;;;;;14.17;86.99;101211.13;6216654;22;45288;-87
2023/11/15 07:00:47;;;;;;;;;2.00;2.00;;;;;14.31;87.16;101207.66;6245112;22;45399;-87
2023/11/15 07:03:13;;;;;;;;;5.33;2.33;;;;;14.11;86.86;101235.16;6235673;22;44904;-83
2023/11/15 07:05:40;;;;;;;;;4.33;3.00;;;;;14.15;87.50;101212.00;6140897;22;46767;-82
2023/11/15 07:08:11;;;;;;;;;4.00;4.00;;;;;14.04;87.34;101193.22;6143510;22;45540;-87
2023/11/15 07:10:40;;;;;;;;;3.00;2.00;;;;;14.13;87.43;101197.75;6265877;22;44726;-87
2023/11/15 07:13:08;;;;;;;;;3.00;3.00;;;;;14.05;87.19;101229.78;6193033;22;45334;-86
2023/11/15 07:15:38;;;;;;;;;2.67;2.67;;;;;13.98;87.08;101218.16;6221478;22;45666;-86
2023/11/15 07:18:03;;;;;;;;;2.00;2.00;;;;;14.12;87.26;101242.31;6192402;22;45289;-87
2023/11/15 07:20:29;;;;;;;;;2.00;2.00;;;;;14.03;87.27;101236.00;6190738;22;45432;-87
2023/11/15 07:22:54;;;;;;;;;1.75;0.00;;;;;14.08;87.54;101256.56;6192664;22;45401;-87
2023/11/15 07:25:20;;;;;;;;;3.00;2.00;;;;;14.01;87.45;101246.69;6192265;22;47344;-85
2023/11/15 07:27:49;;;;;;;;;4.67;2.67;;;;;14.34;87.30;101270.13;6217375;22;45367;-86
2023/11/15 07:30:15;;;;;;;;;4.67;2.00;;;;;13.93;87.09;101243.03;6217602;22;44742;-86
2023/11/15 07:32:43;;;;;;;;;4.00;2.00;;;;;14.23;87.63;101260.22;6220942;22;45600;-85
2023/11/15 07:35:09;;;;;;;;;5.00;2.00;;;;;13.91;87.21;101243.03;6191471;22;47165;-87
2023/11/15 07:37:40;;;;;;;;;2.33;2.00;;;;;14.10;87.30;101265.50;6192334;22;44928;-86
2023/11/15 07:40:22;;;;;;;;;7.00;5.00;;;;;14.24;87.09;101276.31;6193931;22;44886;-86
2023/11/15 07:42:49;;;;;;;;;10.00;5.00;;;;;14.10;87.08;101284.22;6170634;22;45348;-87
2023/11/15 07:45:17;;;;;;;;;3.33;3.00;;;;;14.16;87.04;101313.69;6220408;22;45372;-86
2023/11/15 07:47:42;;;;;;;;;5.00;5.00;;;;;14.13;87.26;101299.38;6219176;22;45435;-86
2023/11/15 07:50:08;;;;;;;;;15.67;11.00;;;;;14.08;86.89;101291.31;6221071;22;45344;-87
2023/11/15 07:52:34;;;;;;;;;8.00;6.00;;;;;14.08;86.79;101299.34;6197591;22;45337;-86
2023/11/15 07:55:00;;;;;;;;;2.00;2.00;;;;;14.21;87.26;101300.34;6223048;22;45307;-85
2023/11/15 07:57:37;;;;;;;;;4.67;2.00;;;;;14.25;86.96;101279.88;6176253;22;45402;-86
2023/11/15 08:00:04;;;;;;;;;1.67;1.67;;;;;14.27;86.86;101315.56;6197194;22;45337;-86
2023/11/15 08:02:29;;;;;;;;;6.67;4.67;;;;;14.25;86.86;101306.63;6197192;22;45371;-86
2023/11/15 08:04:55;;;;;;;;;1.25;1.25;;;;;14.21;86.85;101298.56;6200900;22;46972;-86
2023/11/15 08:07:21;;;;;;;;;2.33;2.33;;;;;14.32;86.70;101292.38;6198059;22;45379;-82
2023/11/15 08:09:55;;;;;;;;;1.00;1.00;;;;;14.60;86.96;101301.53;6195612;22;45384;-85
2023/11/15 08:12:26;;;;;;;;;1.67;1.33;;;;;14.30;86.44;101281.69;6220857;22;45558;-85
2023/11/15 08:14:51;;;;;;;;;2.00;2.00;;;;;14.28;86.43;101274.50;6194375;22;47466;-84
2023/11/15 08:17:16;;;;;;;;;5.00;5.00;;;;;14.59;85.91;101330.09;6219443;22;45309;-86
2023/11/15 08:19:44;;;;;;;;;2.00;2.00;;;;;14.62;85.90;101331.00;6195432;22;45779;-84
2023/11/15 08:22:11;;;;;;;;;4.00;2.67;;;;;14.55;86.14;101317.53;6218202;22;45298;-85
2023/11/15 08:25:05;;;;;;;;;;;;;;;;;;;;;
2023/11/15 08:27:38;;;;;;;;;4.33;2.67;;;;;14.63;85.36;101319.41;6229265;22;72121;-86
2023/11/15 08:30:11;;;;;;;;;3.33;3.33;;;;;14.91;85.38;101331.19;6219237;22;45376;-86
2023/11/15 08:32:41;;;;;;;;;3.33;2.67;;;;;14.98;85.46;101341.94;6191625;22;44889;-85
2023/11/15 08:35:07;;;;;;;;;2.00;2.00;;;;;14.72;85.26;101328.38;6192762;22;47140;-84
2023/11/15 08:37:35;;;;;;;;;3.33;3.33;;;;;14.87;84.78;101356.19;6218564;22;45494;-86
2023/11/15 08:40:01;;;;;;;;;2.00;2.00;;;;;14.86;84.78;101340.97;6195381;22;45443;-86
2023/11/15 08:42:26;;;;;;;;;7.00;4.00;;;;;14.94;84.68;101339.25;6193065;22;45262;-85
2023/11/15 08:45:41;;;;;;;;;2.67;2.00;;;;;15.03;84.11;101323.22;6199301;22;47063;-86
2023/11/15 08:48:08;;;;;;;;;4.67;2.67;;;;;15.13;84.74;101350.97;6195111;22;45372;-85
2023/11/15 08:50:35;;;;;;;;;0.00;0.00;;;;;15.06;84.49;101362.53;6195712;22;45255;-85
2023/11/15 08:53:02;;;;;;;;;2.67;2.33;;;;;15.03;84.26;101338.38;6195278;22;45531;-84
2023/11/15 08:55:28;;;;;;;;;2.33;2.00;;;;;14.99;84.21;101327.66;6168048;22;48088;-85
2023/11/15 08:57:53;;;;;;;;;3.00;3.00;;;;;15.10;84.19;101348.25;6222093;22;44905;-83
2023/11/15 09:00:21;;;;;;;;;2.00;1.00;;;;;15.23;83.96;101334.03;6193754;22;45382;-85
2023/11/15 09:02:48;;;;;;;;;2.67;2.67;;;;;14.98;83.92;101315.16;6220500;22;45261;-84
2023/11/15 09:05:14;;;;;;;;;5.33;3.00;;;;;15.27;83.53;101357.28;6193244;22;47560;-85
2023/11/15 09:07:45;;;;;;;;;2.00;1.00;;;;;15.32;83.83;101323.34;6194296;22;45262;-85
2023/11/15 09:10:13;;;;;;;;;1.00;1.00;;;;;15.22;83.38;101312.59;6222338;22;45684;-83
2023/11/15 09:12:49;;;;;;;;;1.00;1.00;;;;;15.51;83.26;101335.03;6193322;22;44774;-85
2023/11/15 09:15:22;;;;;;;;;1.67;1.67;;;;;15.34;83.07;101331.41;6192741;22;47153;-85
2023/11/15 09:17:52;;;;;;;;;3.00;1.00;;;;;15.42;83.19;101308.19;6192751;22;45365;-86
2023/11/15 09:20:52;;;;;;;;;2.33;2.33;;;;;15.62;82.99;101337.75;6194976;22;45341;-84
2023/11/15 09:24:08;;;;;;;;;2.00;2.00;;;;;15.84;82.05;101337.84;6219739;22;45446;-85
2023/11/15 09:26:35;;;;;;;;;4.00;3.00;;;;;15.52;82.23;101330.56;6193913;22;48082;-86
2023/11/15 09:29:01;;;;;;;;;3.00;1.67;;;;;15.52;81.50;101326.09;6195362;22;45485;-85
2023/11/15 11:33:56;;;;;;;;;0.75;0.75;;;;;17.89;72.17;101319.47;6184740;22;44903;-81
2023/11/15 11:39:41;;;;;;;;;;;;;;;;;;;;;
2023/11/15 12:00:11;;;;;;;;;3.00;1.25;;;;;18.12;69.51;101339.06;6156978;22;46562;-84
2023/11/15 12:02:38;;;;;;;;;1.75;1.75;;;;;17.74;70.09;101332.09;6206971;22;45499;-83
2023/11/15 12:05:07;;;;;;;;;2.00;2.00;;;;;17.85;70.12;101333.88;6207053;22;44741;-83
2023/11/15 12:13:16;;;;;;;;;1.25;1.25;;;;;17.86;68.64;101332.97;6205999;22;45205;-82
2023/11/15 12:15:46;;;;;;;;;1.00;1.00;;;;;17.75;68.26;101317.75;6199515;22;46233;-83
2023/11/15 12:18:24;;;;;;;;;2.50;2.50;;;;;17.52;68.31;101279.34;6233949;22;44760;-85
2023/11/15 12:20:50;;;;;;;;;0.50;0.50;;;;;17.61;68.99;101308.84;6233204;22;45303;-83
2023/11/15 12:23:20;;;;;;;;;3.25;1.25;;;;;17.90;68.41;101310.53;6229385;22;48013;-83
2023/11/15 12:25:48;;;;;;;;;4.50;1.75;;;;;17.86;69.46;101320.41;6224196;22;45332;-82
2023/11/15 12:38:29;;;;;;;;;2.00;1.00;;;;;17.88;68.17;101323.09;6263418;22;44890;-81
2023/11/15 12:41:08;;;;;;;;;2.00;2.00;;;;;17.89;68.96;101314.97;6167253;22;45930;-82
2023/11/15 12:44:11;;;;;;;;;2.00;2.00;;;;;17.84;69.28;101324.03;6268480;22;44707;-83
2023/11/15 12:46:51;;;;;;;;;1.25;1.25;;;;;17.54;68.47;101280.22;6135500;23;45627;-81
2023/11/15 12:49:25;;;;;;;;;3.00;2.00;;;;;17.64;68.80;101303.47;6142369;23;44959;-83
2023/11/15 12:51:56;;;;;;;;;0.50;0.00;;;;;17.52;68.68;101315.19;6142295;23;44864;-84
2023/11/15 12:54:25;;;;;;;;;1.00;0.00;;;;;17.70;66.93;101302.53;6146074;23;44911;-83
2023/11/15 12:57:12;;;;;;;;;1.00;1.00;;;;;17.51;66.93;101269.47;6146398;23;46894;-82
2023/11/15 12:59:50;;;;;;;;;4.00;1.00;;;;;17.42;67.24;101261.47;6147470;23;44782;-85
2023/11/15 13:07:43;;;;;;;;;0.75;0.75;;;;;17.48;68.05;101285.66;6231476;22;45679;-82
2023/11/15 13:28:34;;;;;;;;;0.50;0.50;;;;;17.51;67.83;101286.53;6118608;22;46877;-83
2023/11/15 13:36:44;;;;;;;;;1.75;1.75;;;;;17.73;67.78;101314.19;6200489;22;46321;-82
2023/11/15 14:33:31;;;;;;;;;2.25;2.25;;;;;17.79;68.01;101321.31;6156204;22;46938;-82
2023/11/15 14:39:09;;;;;;;;;1.00;1.00;;;;;17.67;68.01;101322.25;6142135;22;46752;-78
2023/11/15 14:47:21;;;;;;;;;1.75;1.75;;;;;17.13;68.58;101313.59;6198184;22;45660;-83
2023/11/15 14:52:35;;;;;;;;;1.00;1.00;;;;;17.32;69.29;101334.09;6219183;22;45769;-84
2023/11/15 15:02:55;;;;;;;;;1.50;1.50;;;;;17.18;70.19;101341.34;6154036;22;46756;-84
2023/11/15 15:37:46;;;;;;;;;4.00;3.00;;;;;16.49;72.30;101320.88;6206724;22;46268;-84
2023/11/15 16:13:59;;;;;;;;;9.67;9.00;;;;;15.85;75.76;101329.78;6182041;22;46120;-82
2023/11/15 16:16:24;;;;;;;;;13.33;13.00;;;;;15.86;75.92;101336.06;6243985;22;44946;-84
2023/11/15 16:34:23;;;;;;;;;7.00;5.33;;;;;16.04;77.14;101356.63;6193543;22;46310;-83
2023/11/15 16:36:48;;;;;;;;;5.33;5.33;;;;;15.70;76.99;101335.97;6262460;22;44897;-84
2023/11/15 16:39:14;;;;;;;;;4.00;3.00;;;;;15.76;76.98;101356.59;6238059;22;45452;-85
2023/11/15 16:46:52;;;;;;;;;4.00;3.67;;;;;15.79;77.15;101372.69;6199391;22;45749;-83
2023/11/15 16:49:17;;;;;;;;;2.50;2.50;;;;;15.65;77.33;101363.66;6299461;22;46956;-84
2023/11/15 16:54:19;;;;;;;;;3.67;2.00;;;;;15.66;77.43;101377.09;6193344;22;46488;-85
2023/11/15 16:56:48;;;;;;;;;3.67;3.67;;;;;15.59;77.38;101369.91;6218974;22;44787;-84
2023/11/15 16:59:13;;;;;;;;;2.33;2.33;;;;;15.56;77.34;101376.16;6242537;22;47177;-84
2023/11/15 17:01:41;;;;;;;;;3.67;3.67;;;;;15.62;77.68;101379.75;6242540;22;45102;-85
2023/11/15 17:04:08;;;;;;;;;5.00;2.00;;;;;15.56;77.78;101376.16;6244433;22;44650;-85
2023/11/15 17:06:40;;;;;;;;;2.33;2.33;;;;;15.74;78.21;101379.84;6271400;22;44914;-82
2023/11/15 17:09:07;;;;;;;;;2.33;2.33;;;;;15.56;78.08;101386.88;6243933;22;47737;-84
2023/11/15 17:11:33;;;;;;;;;2.33;2.00;;;;;15.53;77.82;101392.25;6244261;22;44900;-83
2023/11/15 17:32:05;;;;;;;;;3.00;3.00;;;;;15.56;77.52;101388.66;6214007;22;46644;-84
2023/11/15 17:47:26;;;;;;;;;2.00;2.00;;;;;15.43;76.87;101378.78;6174133;22;46599;-84
2023/11/15 17:49:52;;;;;;;;;2.33;2.33;;;;;15.45;76.64;101377.00;6270671;22;45015;-84
2023/11/15 17:52:18;;;;;;;;;6.00;4.00;;;;;15.43;76.83;101373.41;6243071;22;45133;-83
2023/11/15 17:54:43;;;;;;;;;2.67;2.67;;;;;15.44;76.78;101375.22;6242970;22;44758;-83
2023/11/15 17:57:09;;;;;;;;;2.67;2.67;;;;;15.53;76.63;101389.56;6244648;22;44823;-83
2023/11/15 17:59:34;;;;;;;;;3.00;3.00;;;;;15.45;76.56;101371.63;6243755;22;46870;-83
2023/11/15 18:02:06;;;;;;;;;4.33;4.00;;;;;15.72;76.49;101387.88;6271197;22;44718;-84
2023/11/15 18:04:37;;;;;;;;;10.67;10.67;;;;;15.68;76.76;101383.34;6269052;22;44704;-83
2023/11/15 18:07:03;;;;;;;;;4.33;4.33;;;;;15.44;76.49;101386.81;6244766;22;45083;-84